createdAt,value
2023-02-27T00:02:27.673Z,90.10
2023-02-27T00:04:57.904Z,89.70
2023-02-27T00:07:29.008Z,89.70
2023-02-27T00:09:57.627Z,89.90
2023-02-27T00:12:25.577Z,90.00
2023-02-27T00:14:53.582Z,90.30
2023-02-27T00:17:21.475Z,90.30
2023-02-27T00:19:49.295Z,90.20
2023-02-27T00:22:17.250Z,90.20
2023-02-27T00:24:45.174Z,90.50
2023-02-27T00:27:14.272Z,90.60
2023-02-27T00:29:42.181Z,90.40
2023-02-27T00:32:10.585Z,90.80
2023-02-27T00:34:38.605Z,90.40
2023-02-27T00:37:06.829Z,90.50
2023-02-27T00:39:34.844Z,90.80
2023-02-27T00:42:02.784Z,90.60
2023-02-27T00:44:30.613Z,90.90
2023-02-27T00:46:58.700Z,91.00
2023-02-27T00:49:27.630Z,90.70
2023-02-27T00:51:55.998Z,91.10
2023-02-27T00:54:24.791Z,91.10
2023-02-27T00:56:52.670Z,91.30
2023-02-27T00:59:21.155Z,91.10
2023-02-27T01:01:49.001Z,91.60
2023-02-27T01:04:16.961Z,91.70
2023-02-27T01:06:44.841Z,92.00
2023-02-27T01:09:12.767Z,92.20
2023-02-27T01:11:40.676Z,92.20
2023-02-27T01:14:08.744Z,92.50
2023-02-27T01:16:36.648Z,92.80
2023-02-27T01:19:04.630Z,92.80
2023-02-27T01:21:32.496Z,93.20
2023-02-27T01:24:00.609Z,94.00
2023-02-27T01:26:28.578Z,94.00
2023-02-27T01:28:56.610Z,94.20
2023-02-27T01:31:24.821Z,94.60
2023-02-27T01:33:55.379Z,94.80
2023-02-27T01:36:23.354Z,95.10
2023-02-27T01:38:51.654Z,95.50
2023-02-27T01:41:19.696Z,95.90
2023-02-27T01:43:58.673Z,95.80
2023-02-27T01:46:27.496Z,96.00
2023-02-27T01:48:59.887Z,96.40
2023-02-27T01:51:30.601Z,96.70
2023-02-27T01:53:58.888Z,97.00
2023-02-27T01:56:31.082Z,96.70
2023-02-27T01:59:04.639Z,97.30
2023-02-27T02:01:33.721Z,97.10
2023-02-27T02:04:01.960Z,97.10
2023-02-27T02:06:34.922Z,97.00
2023-02-27T02:09:03.588Z,97.60
2023-02-27T02:11:31.710Z,98.00
2023-02-27T02:14:00.589Z,98.30
2023-02-27T02:16:47.200Z,98.40
2023-02-27T02:19:18.162Z,98.30
2023-02-27T02:22:21.666Z,97.90
2023-02-27T02:25:08.008Z,97.00
2023-02-27T02:27:38.926Z,96.80
2023-02-27T02:30:06.807Z,96.80
2023-02-27T02:32:34.734Z,96.50
2023-02-27T02:35:08.748Z,96.80
2023-02-27T02:37:54.206Z,96.40
2023-02-27T02:40:35.852Z,96.40
2023-02-27T02:43:12.827Z,96.70
2023-02-27T02:45:48.665Z,96.80
2023-02-27T02:48:33.399Z,97.10
2023-02-27T02:51:20.725Z,97.00
2023-02-27T02:54:25.718Z,97.40
2023-02-27T02:57:07.291Z,97.50
2023-02-27T02:59:53.806Z,98.50
2023-02-27T03:02:24.394Z,98.90
2023-02-27T03:04:56.287Z,99.10
2023-02-27T03:07:27.800Z,99.40
2023-02-27T03:09:56.002Z,99.00
2023-02-27T03:12:24.762Z,99.20
2023-02-27T03:15:03.074Z,99.10
2023-02-27T03:17:37.269Z,98.60
2023-02-27T03:20:11.312Z,98.50
2023-02-27T03:22:41.188Z,98.00
2023-02-27T03:25:11.199Z,98.50
2023-02-27T03:27:45.337Z,97.90
2023-02-27T03:30:19.067Z,98.10
2023-02-27T03:33:08.555Z,98.20
2023-02-27T03:35:43.248Z,98.30
2023-02-27T03:38:15.900Z,98.80
2023-02-27T03:40:54.151Z,98.90
2023-02-27T03:43:46.841Z,98.20
2023-02-27T03:46:20.487Z,98.90
2023-02-27T03:48:48.877Z,98.50
2023-02-27T03:51:18.770Z,99.20
2023-02-27T03:53:50.125Z,99.30
2023-02-27T03:56:21.760Z,99.30
2023-02-27T03:58:50.073Z,99.10
2023-02-27T04:10:36.478Z,97.90
2023-02-27T04:13:24.761Z,98.30
2023-02-27T04:16:01.562Z,98.50
2023-02-27T04:18:46.967Z,98.90
2023-02-27T04:21:35.530Z,99.60
2023-02-27T04:24:16.592Z,99.90
2023-02-27T04:26:48.564Z,99.90
2023-02-27T04:29:35.111Z,99.90
2023-02-27T04:32:06.793Z,99.90
2023-02-27T04:34:38.665Z,99.90
2023-02-27T04:37:09.056Z,99.90
2023-02-27T04:39:51.966Z,99.90
2023-02-27T04:42:24.520Z,99.90
2023-02-27T04:44:54.955Z,99.90
2023-02-27T04:47:24.726Z,99.90
2023-02-27T04:49:55.988Z,99.90
2023-02-27T04:52:37.881Z,99.90
2023-02-27T04:55:08.904Z,99.90
2023-02-27T04:57:43.273Z,99.90
2023-02-27T05:00:14.206Z,99.90
2023-02-27T05:02:50.803Z,99.90
2023-02-27T05:05:21.544Z,99.90
2023-02-27T05:07:55.085Z,99.90
2023-02-27T05:10:32.202Z,99.90
2023-02-27T05:13:03.708Z,99.90
2023-02-27T05:15:41.214Z,99.90
2023-02-27T05:18:10.665Z,99.90
2023-02-27T05:21:03.657Z,99.90
2023-02-27T05:23:45.081Z,99.90
2023-02-27T05:26:31.688Z,99.90
2023-02-27T05:29:21.022Z,99.90
2023-02-27T05:31:57.318Z,99.90
2023-02-27T05:34:33.192Z,99.90
2023-02-27T05:37:09.372Z,99.90
2023-02-27T05:39:38.737Z,99.90
2023-02-27T05:42:18.996Z,99.90
2023-02-27T05:44:53.877Z,99.90
2023-02-27T05:47:26.131Z,99.90
2023-02-27T05:49:57.539Z,99.90
2023-02-27T05:52:27.106Z,99.90
2023-02-27T05:55:03.677Z,99.90
2023-02-27T05:57:43.166Z,99.90
2023-02-27T06:00:11.475Z,99.90
2023-02-27T06:02:43.108Z,99.90
2023-02-27T06:05:16.543Z,99.90
2023-02-27T06:07:44.807Z,99.90
2023-02-27T06:10:17.829Z,99.90
2023-02-27T06:12:46.071Z,99.90
2023-02-27T06:15:15.464Z,99.90
2023-02-27T06:17:43.503Z,99.90
2023-02-27T06:20:11.932Z,99.90
2023-02-27T06:22:40.070Z,99.90
2023-02-27T06:25:08.208Z,99.90
2023-02-27T06:27:37.172Z,99.90
2023-02-27T06:30:07.677Z,99.90
2023-02-27T06:32:35.640Z,99.90
2023-02-27T06:35:03.940Z,99.90
2023-02-27T06:37:34.096Z,99.60
2023-02-27T06:40:05.194Z,98.10
2023-02-27T06:42:33.236Z,97.70
2023-02-27T06:45:01.419Z,97.50
2023-02-27T06:47:32.156Z,97.70
2023-02-27T06:50:00.555Z,98.10
2023-02-27T06:52:28.566Z,98.40
2023-02-27T06:54:56.439Z,98.90
2023-02-27T06:57:26.508Z,98.90
2023-02-27T06:59:57.035Z,99.80
2023-02-27T07:02:26.018Z,99.90
2023-02-27T07:04:53.985Z,99.90
2023-02-27T07:07:36.018Z,99.90
2023-02-27T07:10:09.644Z,99.90
2023-02-27T07:12:37.919Z,99.90
2023-02-27T07:15:08.432Z,99.40
2023-02-27T07:17:40.100Z,98.70
2023-02-27T07:20:11.956Z,98.70
2023-02-27T07:22:40.994Z,99.30
2023-02-27T07:25:11.446Z,99.10
2023-02-27T07:27:46.573Z,99.20
2023-02-27T07:30:14.796Z,98.90
2023-02-27T07:32:48.566Z,97.80
2023-02-27T07:35:16.486Z,97.30
2023-02-27T07:37:47.051Z,96.90
2023-02-27T07:40:17.520Z,96.70
2023-02-27T07:42:51.542Z,96.60
2023-02-27T07:45:23.654Z,96.60
2023-02-27T07:47:51.608Z,96.60
2023-02-27T07:50:19.694Z,96.50
2023-02-27T07:52:47.782Z,96.20
2023-02-27T07:55:15.808Z,95.80
2023-02-27T07:57:45.357Z,96.20
2023-02-27T08:00:13.325Z,95.90
2023-02-27T08:02:43.797Z,96.30
2023-02-27T08:05:11.906Z,96.20
2023-02-27T08:07:39.852Z,96.20
2023-02-27T08:10:08.116Z,96.00
2023-02-27T08:12:36.076Z,96.30
2023-02-27T08:15:04.296Z,96.30
2023-02-27T08:17:32.248Z,96.70
2023-02-27T08:20:00.450Z,97.00
2023-02-27T08:22:30.665Z,96.70
2023-02-27T08:25:00.824Z,96.80
2023-02-27T08:27:28.757Z,97.00
2023-02-27T08:29:56.756Z,97.20
2023-02-27T08:32:25.022Z,97.30
2023-02-27T08:34:55.233Z,97.00
2023-02-27T08:37:23.106Z,96.60
2023-02-27T08:39:53.533Z,96.40
2023-02-27T08:42:21.399Z,96.30
2023-02-27T08:44:52.359Z,96.10
2023-02-27T08:47:20.340Z,96.40
2023-02-27T08:49:50.788Z,96.60
2023-02-27T08:52:18.828Z,96.90
2023-02-27T08:54:46.875Z,96.80
2023-02-27T08:57:15.231Z,96.50
2023-02-27T08:59:43.445Z,96.00
2023-02-27T09:02:11.602Z,95.00
2023-02-27T09:04:39.942Z,94.10
2023-02-27T09:07:08.756Z,93.30
2023-02-27T09:09:36.715Z,93.00
2023-02-27T09:12:07.203Z,92.80
2023-02-27T09:14:35.185Z,92.50
2023-02-27T09:17:03.212Z,92.40
2023-02-27T09:19:31.263Z,92.30
2023-02-27T09:22:00.401Z,92.10
2023-02-27T09:24:28.386Z,92.20
2023-02-27T09:26:56.384Z,91.60
2023-02-27T09:29:26.640Z,91.50
2023-02-27T09:31:54.676Z,91.00
2023-02-27T09:34:25.072Z,90.70
2023-02-27T09:36:53.157Z,90.50
2023-02-27T09:39:21.146Z,90.30
2023-02-27T09:42:07.182Z,90.20
2023-02-27T09:44:47.042Z,90.00
2023-02-27T09:47:21.510Z,89.30
2023-02-27T09:49:56.162Z,89.00
2023-02-27T09:52:24.163Z,88.80
2023-02-27T09:54:55.516Z,89.00
2023-02-27T09:57:44.401Z,88.60
2023-02-27T10:00:19.487Z,88.30
2023-02-27T10:02:58.328Z,87.80
2023-02-27T10:05:31.713Z,87.70
2023-02-27T10:08:20.261Z,87.50
2023-02-27T10:11:00.630Z,87.70
2023-02-27T10:14:06.455Z,87.40
2023-02-27T10:16:35.513Z,87.50
2023-02-27T10:19:05.404Z,87.50
2023-02-27T10:21:41.596Z,87.70
2023-02-27T10:24:18.021Z,87.50
2023-02-27T10:26:50.109Z,87.10
2023-02-27T10:29:22.079Z,87.20
2023-02-27T10:31:56.964Z,86.80
2023-02-27T10:34:25.930Z,87.10
2023-02-27T10:36:54.208Z,87.50
2023-02-27T10:39:23.142Z,87.40
2023-02-27T10:41:51.031Z,87.90
2023-02-27T10:44:19.166Z,88.40
2023-02-27T10:46:50.526Z,88.40
2023-02-27T10:49:20.847Z,87.90
2023-02-27T10:52:11.036Z,87.10
2023-02-27T10:54:40.140Z,86.40
2023-02-27T10:57:28.440Z,85.60
2023-02-27T10:59:59.230Z,86.00
2023-02-27T11:02:33.073Z,86.30
2023-02-27T11:05:03.252Z,85.80
2023-02-27T11:07:33.278Z,85.90
2023-02-27T11:10:07.311Z,86.80
2023-02-27T11:12:35.734Z,87.80
2023-02-27T11:15:16.017Z,88.60
2023-02-27T11:17:46.405Z,89.20
2023-02-27T11:20:29.574Z,88.70
2023-02-27T11:23:17.463Z,89.30
2023-02-27T11:25:47.751Z,89.20
2023-02-27T11:28:24.021Z,88.20
2023-02-27T11:31:18.282Z,87.60
2023-02-27T11:33:56.545Z,87.40
2023-02-27T11:36:39.648Z,86.90
2023-02-27T11:39:07.696Z,86.50
2023-02-27T11:41:45.173Z,86.70
2023-02-27T11:44:17.449Z,86.50
2023-02-27T11:46:53.277Z,85.90
2023-02-27T11:49:33.336Z,85.90
2023-02-27T11:52:04.459Z,86.00
2023-02-27T11:54:35.450Z,86.40
2023-02-27T11:57:06.678Z,86.50
2023-02-27T11:59:43.930Z,86.50
2023-02-27T12:02:21.159Z,86.00
2023-02-27T12:04:55.486Z,85.90
2023-02-27T12:07:28.827Z,85.90
2023-02-27T12:10:07.011Z,87.10
2023-02-27T12:12:46.407Z,87.40
2023-02-27T12:15:20.473Z,87.00
2023-02-27T12:17:55.351Z,86.90
2023-02-27T12:20:23.357Z,87.80
2023-02-27T12:22:53.223Z,88.10
2023-02-27T12:25:36.599Z,87.80
2023-02-27T12:28:04.619Z,88.30
2023-02-27T12:30:52.981Z,88.90
2023-02-27T12:33:53.511Z,88.70
2023-02-27T12:36:23.788Z,89.10
2023-02-27T12:38:52.421Z,89.00
2023-02-27T12:41:37.011Z,88.30
2023-02-27T12:44:25.268Z,87.30
2023-02-27T12:47:13.245Z,87.00
2023-02-27T12:49:53.464Z,87.90
2023-02-27T12:52:38.630Z,88.70
2023-02-27T12:55:11.016Z,88.40
2023-02-27T12:57:53.125Z,88.20
2023-02-27T13:00:25.359Z,88.40
2023-02-27T13:02:58.576Z,87.90
2023-02-27T13:05:46.383Z,88.10
2023-02-27T13:08:14.292Z,88.20
2023-02-27T13:10:45.556Z,88.00
2023-02-27T13:13:34.573Z,89.10
2023-02-27T13:16:06.320Z,88.40
2023-02-27T13:18:57.490Z,88.90
2023-02-27T13:21:25.676Z,89.70
2023-02-27T13:23:58.791Z,90.10
2023-02-27T13:26:34.007Z,90.00
2023-02-27T13:29:02.286Z,90.70
2023-02-27T13:31:37.192Z,90.70
2023-02-27T13:34:12.181Z,90.80
2023-02-27T13:36:45.406Z,90.70
2023-02-27T13:39:31.933Z,90.50
2023-02-27T13:41:59.847Z,89.90
2023-02-27T13:44:38.401Z,88.80
2023-02-27T13:47:39.173Z,88.20
2023-02-27T13:50:21.740Z,88.90
2023-02-27T13:52:52.046Z,88.70
2023-02-27T13:55:32.157Z,90.00
2023-02-27T13:58:01.155Z,90.20
2023-02-27T14:00:30.639Z,90.20
2023-02-27T14:03:00.828Z,90.20
2023-02-27T14:05:32.609Z,90.50
2023-02-27T14:08:04.457Z,90.40
2023-02-27T14:10:33.050Z,90.30
2023-02-27T14:13:04.734Z,90.10
2023-02-27T14:15:33.052Z,90.50
2023-02-27T14:18:15.709Z,90.80
2023-02-27T14:20:50.334Z,90.50
2023-02-27T14:23:27.474Z,90.70
2023-02-27T14:25:58.323Z,90.70
2023-02-27T14:28:26.554Z,90.80
2023-02-27T14:30:59.427Z,91.00
2023-02-27T14:33:42.140Z,91.10
2023-02-27T14:36:15.923Z,91.70
2023-02-27T14:38:46.179Z,91.90
2023-02-27T14:41:14.003Z,91.70
2023-02-27T14:43:45.310Z,92.30
2023-02-27T14:46:24.825Z,92.20
2023-02-27T14:48:53.719Z,92.40
2023-02-27T14:51:22.482Z,92.60
2023-02-27T14:54:10.420Z,92.80
2023-02-27T14:56:38.425Z,92.60
2023-02-27T14:59:34.416Z,92.70
2023-02-27T15:02:04.670Z,92.70
2023-02-27T15:04:33.590Z,93.20
2023-02-27T15:07:01.794Z,93.30
2023-02-27T15:09:32.964Z,93.30
2023-02-27T15:12:04.471Z,93.80
2023-02-27T15:14:37.450Z,93.70
2023-02-27T15:17:18.375Z,94.00
2023-02-27T15:19:47.502Z,94.00
2023-02-27T15:22:36.067Z,94.30
2023-02-27T15:25:28.985Z,94.30
2023-02-27T15:28:00.129Z,94.90
2023-02-27T15:30:28.178Z,95.00
2023-02-27T15:32:56.202Z,95.30
2023-02-27T15:35:28.939Z,95.40
2023-02-27T15:37:58.448Z,95.50
2023-02-27T15:40:27.658Z,95.30
2023-02-27T15:42:56.196Z,96.10
2023-02-27T15:45:32.306Z,95.80
2023-02-27T15:48:00.640Z,96.10
2023-02-27T15:50:34.288Z,95.90
2023-02-27T15:53:11.276Z,96.30
2023-02-27T15:55:40.973Z,96.30
2023-02-27T15:58:38.572Z,96.40
2023-02-27T16:01:15.764Z,96.50
2023-02-27T16:03:48.571Z,96.70
2023-02-27T16:06:36.379Z,97.10
2023-02-27T16:09:06.998Z,97.30
2023-02-27T16:11:38.264Z,97.60
2023-02-27T16:14:08.874Z,98.10
2023-02-27T16:16:40.172Z,97.70
2023-02-27T16:19:27.602Z,98.00
2023-02-27T16:22:06.973Z,98.40
2023-02-27T16:24:35.048Z,98.70
2023-02-27T16:27:03.148Z,98.90
2023-02-27T16:29:40.690Z,99.10
2023-02-27T16:32:18.218Z,99.20
2023-02-27T16:34:46.892Z,99.40
2023-02-27T16:37:21.414Z,99.10
2023-02-27T16:39:52.635Z,99.50
2023-02-27T16:42:21.162Z,99.60
2023-02-27T16:44:49.202Z,99.90
2023-02-27T16:47:17.123Z,99.90
2023-02-27T16:49:47.934Z,99.70
2023-02-27T16:52:16.042Z,99.90
2023-02-27T16:54:44.087Z,99.90
2023-02-27T16:57:14.309Z,99.90
2023-02-27T16:59:44.777Z,99.90
2023-02-27T17:02:14.013Z,99.90
2023-02-27T17:04:44.717Z,99.90
2023-02-27T17:07:17.215Z,99.90
2023-02-27T17:09:48.662Z,99.90
2023-02-27T17:12:16.771Z,99.90
2023-02-27T17:14:44.669Z,99.90
2023-02-27T17:17:12.584Z,99.90
2023-02-27T17:19:40.602Z,99.90
2023-02-27T17:22:08.553Z,99.90
2023-02-27T17:24:37.345Z,99.90
2023-02-27T17:27:05.514Z,99.90
2023-02-27T17:29:33.784Z,99.90
2023-02-27T17:32:02.125Z,99.90
2023-02-27T17:34:30.298Z,99.90
2023-02-27T17:36:58.376Z,99.90
2023-02-27T17:39:26.292Z,99.90
2023-02-27T17:41:55.074Z,99.90
2023-02-27T17:44:23.164Z,99.90
2023-02-27T17:46:51.186Z,99.90
2023-02-27T17:49:19.408Z,99.90
2023-02-27T17:51:47.343Z,99.90
2023-02-27T17:54:15.516Z,99.90
2023-02-27T17:56:43.888Z,99.90
2023-02-27T17:59:12.076Z,99.90
2023-02-27T18:01:40.098Z,99.90
2023-02-27T18:04:11.778Z,99.90
2023-02-27T18:06:39.823Z,99.90
2023-02-27T18:09:07.726Z,99.90
2023-02-27T18:11:37.839Z,99.90
2023-02-27T18:14:05.914Z,99.90
2023-02-27T18:16:34.327Z,99.90
2023-02-27T18:19:03.407Z,99.90
2023-02-27T18:21:31.519Z,99.90
2023-02-27T18:24:01.725Z,99.90
2023-02-27T18:26:31.299Z,99.90
2023-02-27T18:29:00.733Z,99.90
2023-02-27T18:31:34.680Z,99.90
2023-02-27T18:34:02.669Z,99.90
2023-02-27T18:36:31.538Z,99.90
2023-02-27T18:39:02.422Z,99.90
2023-02-27T18:41:30.521Z,99.90
2023-02-27T18:44:01.324Z,99.90
2023-02-27T18:46:29.778Z,99.90
2023-02-27T18:48:58.004Z,99.90
2023-02-27T18:51:26.470Z,99.90
2023-02-27T18:53:54.364Z,99.90
2023-02-27T18:56:24.303Z,99.90
2023-02-27T18:58:53.510Z,99.90
2023-02-27T19:01:26.717Z,99.90
2023-02-27T19:04:00.596Z,99.90
2023-02-27T19:06:29.065Z,99.90
2023-02-27T19:08:57.506Z,99.90
2023-02-27T19:11:26.878Z,99.90
2023-02-27T19:13:57.091Z,99.90
2023-02-27T19:16:25.360Z,99.90
2023-02-27T19:18:57.641Z,99.90
2023-02-27T19:21:25.795Z,99.90
2023-02-27T19:23:54.289Z,99.90
2023-02-27T19:26:23.631Z,99.90
2023-02-27T19:28:54.861Z,99.90
2023-02-27T19:31:24.043Z,99.90
2023-02-27T19:33:52.122Z,99.90
2023-02-27T19:36:21.385Z,99.90
2023-02-27T19:38:52.889Z,99.90
2023-02-27T19:41:21.835Z,99.90
2023-02-27T19:43:51.553Z,99.90
2023-02-27T19:46:21.354Z,99.90
2023-02-27T19:48:49.456Z,99.90
2023-02-27T19:51:17.354Z,99.90
2023-02-27T19:53:48.936Z,99.90
2023-02-27T19:56:27.430Z,99.90
2023-02-27T19:58:55.619Z,99.90
2023-02-27T20:01:33.666Z,99.90
2023-02-27T20:04:02.653Z,99.90
2023-02-27T20:06:32.154Z,99.90
2023-02-27T20:09:00.669Z,99.90
2023-02-27T20:11:32.153Z,99.90
2023-02-27T20:14:00.526Z,99.90
2023-02-27T20:16:31.015Z,99.90
2023-02-27T20:19:01.484Z,99.90
2023-02-27T20:21:30.078Z,99.90
2023-02-27T20:23:58.397Z,99.90
2023-02-27T20:26:34.081Z,99.90
2023-02-27T20:29:04.707Z,99.90
2023-02-27T20:31:34.626Z,99.90
2023-02-27T20:34:11.317Z,99.90
2023-02-27T20:36:40.195Z,99.90
2023-02-27T20:39:10.346Z,99.90
2023-02-27T20:41:38.990Z,99.90
2023-02-27T20:44:08.850Z,99.90
2023-02-27T20:46:36.772Z,99.90
2023-02-27T20:49:05.546Z,99.90
2023-02-27T20:51:37.990Z,99.90
2023-02-27T20:54:08.038Z,99.90
2023-02-27T20:56:40.215Z,99.90
2023-02-27T20:59:09.581Z,99.90
2023-02-27T21:01:38.563Z,99.90
2023-02-27T21:04:06.795Z,99.90
2023-02-27T21:06:35.244Z,99.90
2023-02-27T21:09:05.545Z,99.90
2023-02-27T21:11:33.684Z,99.90
2023-02-27T21:14:08.262Z,99.90
2023-02-27T21:16:37.309Z,99.90
2023-02-27T21:19:05.225Z,99.90
2023-02-27T21:21:34.707Z,99.90
2023-02-27T21:24:06.442Z,99.90
2023-02-27T21:26:38.147Z,99.90
2023-02-27T21:29:08.761Z,99.90
2023-02-27T21:31:39.560Z,99.90
2023-02-27T21:34:09.173Z,99.90
2023-02-27T21:36:42.589Z,99.90
2023-02-27T21:39:15.369Z,99.90
2023-02-27T21:41:43.752Z,99.90
2023-02-27T21:44:13.215Z,99.90
2023-02-27T21:46:41.235Z,99.90
2023-02-27T21:49:09.748Z,99.90
2023-02-27T21:51:41.376Z,99.90
2023-02-27T21:54:11.028Z,99.90
2023-02-27T21:56:39.492Z,99.90
2023-02-27T21:59:07.348Z,99.90
2023-02-27T22:01:38.056Z,99.90
2023-02-27T22:04:06.965Z,99.90
2023-02-27T22:06:35.191Z,99.90
2023-02-27T22:09:05.407Z,99.90
2023-02-27T22:11:34.262Z,99.90
2023-02-27T22:14:02.803Z,99.90
2023-02-27T22:16:30.872Z,99.90
2023-02-27T22:18:58.941Z,99.90
2023-02-27T22:21:27.868Z,99.90
2023-02-27T22:23:57.174Z,99.90
2023-02-27T22:26:26.844Z,99.90
2023-02-27T22:28:58.082Z,99.90
2023-02-27T22:31:30.986Z,99.90
2023-02-27T22:34:00.705Z,99.90
2023-02-27T22:36:29.902Z,99.90
2023-02-27T22:38:58.030Z,99.90
2023-02-27T22:41:28.167Z,99.90
2023-02-27T22:43:56.835Z,99.90
2023-02-27T22:46:35.206Z,99.90
2023-02-27T22:49:04.965Z,99.90
2023-02-27T22:51:33.128Z,99.90
2023-02-27T22:54:02.134Z,99.90
2023-02-27T22:56:30.129Z,99.90
2023-02-27T22:58:58.306Z,99.90
2023-02-27T23:01:31.123Z,99.90
2023-02-27T23:04:00.778Z,99.90
2023-02-27T23:06:31.265Z,99.90
2023-02-27T23:08:59.453Z,99.90
2023-02-27T23:11:28.274Z,99.90
2023-02-27T23:13:58.871Z,99.90
2023-02-27T23:16:27.203Z,99.90
2023-02-27T23:18:56.649Z,99.90
2023-02-27T23:21:35.007Z,99.90
2023-02-27T23:24:07.627Z,99.90
2023-02-27T23:26:36.303Z,99.90
2023-02-27T23:29:04.445Z,99.90
2023-02-27T23:31:34.801Z,99.90
2023-02-27T23:34:06.152Z,99.90
2023-02-27T23:36:35.311Z,99.90
2023-02-27T23:39:03.779Z,99.90
2023-02-27T23:41:31.901Z,99.90
2023-02-27T23:44:02.225Z,99.90
2023-02-27T23:46:30.912Z,99.90
2023-02-27T23:49:00.447Z,99.90
2023-02-27T23:51:30.435Z,99.90
2023-02-27T23:53:59.372Z,99.90
2023-02-27T23:56:28.828Z,99.90
2023-02-27T23:58:57.951Z,99.90
